aviador You're here:

LFRU Decoded Metar

MORLAIX in FRANCE
Report Time2018-06-25 06:00:00
UTC Time2018-06-25 06:22:19
Flight Rules vfr VFR
Wind080° at 08 kt
W.Decomp.*RWY 09: 7.9 kt HW 1.1 kt LCW
RWY 04: 5.9 kt HW 5.4 kt RCW
RWY 16: 1.7 kt HW 7.8 kt LCW
W.Rank080° ranks 17
Current wind is above 080° avg. (7.5)
Visibility9999 m
Phenomena:N/A
Clouds:N/A
Expected CloudBase > 800 ft AGL from Temp-Dew spread
CeilingNone
Temp14°C (ISA -0)
Dew Point12°C (88% RH)
AAT11.8°C
QNH1024 hPa
Density Alt46 ft
Elevation282 ft
Report Wrong Elevation
Raw Report
METAR LFRU 250600Z AUTO 08008KT CAVOK 14/12 Q1024=

Extra information for LFRU:More info

Metar Taf Metar & Taf Last 4 Metars F.Rules Stats Wind Profile Meteogram Temp Stats Airport Information Weather charts Add Link Nearby VenuesMetar ALERT Operation Metar Decoded Social comments